sensor_id;sensor_type;location;lat;lon;timestamp;pressure;altitude;pressure_sealevel;temperature;humidity
30343;BME280;17145;49.902;8.680;'2023-01-30 00:58:42';100750;;;0;49
30343;BME280;17145;49.902;8.680;'2023-01-30 01:01:14';100740;;;0;49
30343;BME280;17145;49.902;8.680;'2023-01-30 01:03:42';100740;;;0;49
30343;BME280;17145;49.902;8.680;'2023-01-30 01:06:10';100740;;;0;50
30343;BME280;17145;49.902;8.680;'2023-01-30 01:08:37';100730;;;0;50
30343;BME280;17145;49.902;8.680;'2023-01-30 01:11:06';100720;;;0;50
30343;BME280;17145;49.902;8.680;'2023-01-30 01:13:34';100720;;;0;50
30343;BME280;17145;49.902;8.680;'2023-01-30 01:16:02';100730;;;0;50
30343;BME280;17145;49.902;8.680;'2023-01-30 01:18:31';100740;;;0;50
30343;BME280;17145;49.902;8.680;'2023-01-30 01:21:00';100730;;;0;50
30343;BME280;17145;49.902;8.680;'2023-01-30 01:23:30';100720;;;0;49
30343;BME280;17145;49.902;8.680;'2023-01-30 01:25:58';100720;;;0;50
30343;BME280;17145;49.902;8.680;'2023-01-30 01:28:26';100710;;;0;50
30343;BME280;17145;49.902;8.680;'2023-01-30 01:30:55';100710;;;0;50
30343;BME280;17145;49.902;8.680;'2023-01-30 01:33:24';100680;;;0;50
30343;BME280;17145;49.902;8.680;'2023-01-30 01:35:54';100670;;;0;49
30343;BME280;17145;49.902;8.680;'2023-01-30 01:38:22';100650;;;0;51
30343;BME280;17145;49.902;8.680;'2023-01-30 01:40:50';100650;;;0;51
30343;BME280;17145;49.902;8.680;'2023-01-30 01:43:19';100660;;;0;51
30343;BME280;17145;49.902;8.680;'2023-01-30 01:45:47';100640;;;0;51
30343;BME280;17145;49.902;8.680;'2023-01-30 01:48:15';100650;;;0;51
30343;BME280;17145;49.902;8.680;'2023-01-30 01:50:42';100650;;;0;52
30343;BME280;17145;49.902;8.680;'2023-01-30 01:53:10';100630;;;0;51
30343;BME280;17145;49.902;8.680;'2023-01-30 01:55:38';100620;;;0;51
30343;BME280;17145;49.902;8.680;'2023-01-30 01:58:05';100620;;;0;52
30343;BME280;17145;49.902;8.680;'2023-01-30 02:00:33';100610;;;0;51
30343;BME280;17145;49.902;8.680;'2023-01-30 02:03:01';100610;;;0;51
30343;BME280;17145;49.902;8.680;'2023-01-30 02:05:28';100610;;;0;51
30343;BME280;17145;49.902;8.680;'2023-01-30 02:07:55';100610;;;0;51
30343;BME280;17145;49.902;8.680;'2023-01-30 02:10:23';100600;;;0;53
30343;BME280;17145;49.902;8.680;'2023-01-30 02:12:51';100620;;;0;52
30343;BME280;17145;49.902;8.680;'2023-01-30 02:15:20';100620;;;0;51
30343;BME280;17145;49.902;8.680;'2023-01-30 02:17:48';100620;;;0;51
30343;BME280;17145;49.902;8.680;'2023-01-30 02:20:16';100640;;;0;51
30343;BME280;17145;49.902;8.680;'2023-01-30 02:22:44';100640;;;0;52
30343;BME280;17145;49.902;8.680;'2023-01-30 02:25:11';100640;;;0;54
30343;BME280;17145;49.902;8.680;'2023-01-30 02:27:39';100630;;;0;54
30343;BME280;17145;49.902;8.680;'2023-01-30 02:30:08';100600;;;0;53
30343;BME280;17145;49.902;8.680;'2023-01-30 02:32:36';100600;;;0;53
30343;BME280;17145;49.902;8.680;'2023-01-30 02:35:04';100600;;;0;53
30343;BME280;17145;49.902;8.680;'2023-01-30 02:37:31';100610;;;0;54
30343;BME280;17145;49.902;8.680;'2023-01-30 02:39:59';100590;;;0;54
30343;BME280;17145;49.902;8.680;'2023-01-30 02:42:32';100610;;;0;53
30343;BME280;17145;49.902;8.680;'2023-01-30 02:45:07';100600;;;0;53
30343;BME280;17145;49.902;8.680;'2023-01-30 02:47:35';100610;;;0;54
30343;BME280;17145;49.902;8.680;'2023-01-30 02:50:04';100610;;;0;56
30343;BME280;17145;49.902;8.680;'2023-01-30 02:52:32';100600;;;0;55
30343;BME280;17145;49.902;8.680;'2023-01-30 02:55:04';100600;;;0;54
30343;BME280;17145;49.902;8.680;'2023-01-30 02:57:37';100600;;;0;54
30343;BME280;17145;49.902;8.680;'2023-01-30 03:00:10';100580;;;0;53
30343;BME280;17145;49.902;8.680;'2023-01-30 03:02:39';100580;;;0;53
30343;BME280;17145;49.902;8.680;'2023-01-30 03:05:08';100570;;;0;53
30343;BME280;17145;49.902;8.680;'2023-01-30 03:07:41';100560;;;0;53
30343;BME280;17145;49.902;8.680;'2023-01-30 03:10:14';100550;;;0;52
30343;BME280;17145;49.902;8.680;'2023-01-30 03:12:44';100540;;;0;52
30343;BME280;17145;49.902;8.680;'2023-01-30 03:15:11';100550;;;0;52
30343;BME280;17145;49.902;8.680;'2023-01-30 03:17:39';100550;;;0;52
30343;BME280;17145;49.902;8.680;'2023-01-30 03:22:54';100530;;;0;52
30343;BME280;17145;49.902;8.680;'2023-01-30 03:25:42';100540;;;0;53
30343;BME280;17145;49.902;8.680;'2023-01-30 03:28:30';100550;;;0;52
30343;BME280;17145;49.902;8.680;'2023-01-30 03:31:13';100550;;;0;52
30343;BME280;17145;49.902;8.680;'2023-01-30 03:33:52';100550;;;0;53
30343;BME280;17145;49.902;8.680;'2023-01-30 03:36:28';100540;;;0;53
30343;BME280;17145;49.902;8.680;'2023-01-30 03:39:05';100550;;;0;54
30343;BME280;17145;49.902;8.680;'2023-01-30 03:41:42';100550;;;0;54
30343;BME280;17145;49.902;8.680;'2023-01-30 03:44:16';100540;;;0;53
30343;BME280;17145;49.902;8.680;'2023-01-30 03:46:52';100540;;;0;53
30343;BME280;17145;49.902;8.680;'2023-01-30 03:49:26';100540;;;0;53
30343;BME280;17145;49.902;8.680;'2023-01-30 03:51:57';100540;;;0;52
30343;BME280;17145;49.902;8.680;'2023-01-30 03:54:24';100540;;;0;53
30343;BME280;17145;49.902;8.680;'2023-01-30 03:56:56';100530;;;0;53
30343;BME280;17145;49.902;8.680;'2023-01-30 04:02:05';100530;;;0;54
30343;BME280;17145;49.902;8.680;'2023-01-30 04:04:49';100520;;;0;54
30343;BME280;17145;49.902;8.680;'2023-01-30 04:07:27';100520;;;0;53
30343;BME280;17145;49.902;8.680;'2023-01-30 04:10:01';100530;;;0;53
30343;BME280;17145;49.902;8.680;'2023-01-30 04:12:40';100520;;;0;53
30343;BME280;17145;49.902;8.680;'2023-01-30 04:15:12';100530;;;0;53
30343;BME280;17145;49.902;8.680;'2023-01-30 04:17:44';100520;;;0;53
30343;BME280;17145;49.902;8.680;'2023-01-30 04:20:12';100520;;;0;53
30343;BME280;17145;49.902;8.680;'2023-01-30 04:22:39';100520;;;0;54
30343;BME280;17145;49.902;8.680;'2023-01-30 04:25:08';100530;;;0;54
30343;BME280;17145;49.902;8.680;'2023-01-30 04:27:37';100530;;;0;53
30343;BME280;17145;49.902;8.680;'2023-01-30 04:30:05';100520;;;0;53
30343;BME280;17145;49.902;8.680;'2023-01-30 04:32:33';100520;;;0;54
30343;BME280;17145;49.902;8.680;'2023-01-30 04:35:00';100520;;;0;53
30343;BME280;17145;49.902;8.680;'2023-01-30 04:37:28';100530;;;0;53
30343;BME280;17145;49.902;8.680;'2023-01-30 04:39:55';100530;;;0;53
30343;BME280;17145;49.902;8.680;'2023-01-30 04:42:22';100520;;;0;53
30343;BME280;17145;49.902;8.680;'2023-01-30 04:44:50';100520;;;0;54
30343;BME280;17145;49.902;8.680;'2023-01-30 04:47:17';100510;;;0;53
30343;BME280;17145;49.902;8.680;'2023-01-30 04:49:45';100500;;;0;53
30343;BME280;17145;49.902;8.680;'2023-01-30 04:52:12';100500;;;0;53
30343;BME280;17145;49.902;8.680;'2023-01-30 04:54:40';100490;;;0;53
30343;BME280;17145;49.902;8.680;'2023-01-30 04:57:07';100500;;;0;53
30343;BME280;17145;49.902;8.680;'2023-01-30 04:59:34';100500;;;0;53
30343;BME280;17145;49.902;8.680;'2023-01-30 05:02:02';100500;;;0;53
30343;BME280;17145;49.902;8.680;'2023-01-30 05:04:29';100490;;;0;53
30343;BME280;17145;49.902;8.680;'2023-01-30 05:06:57';100480;;;0;53
30343;BME280;17145;49.902;8.680;'2023-01-30 05:09:25';100490;;;0;53
30343;BME280;17145;49.902;8.680;'2023-01-30 05:11:52';100480;;;0;54
30343;BME280;17145;49.902;8.680;'2023-01-30 05:14:20';100470;;;0;53
30343;BME280;17145;49.902;8.680;'2023-01-30 05:16:47';100470;;;0;53
30343;BME280;17145;49.902;8.680;'2023-01-30 05:19:14';100470;;;0;53
30343;BME280;17145;49.902;8.680;'2023-01-30 05:21:42';100460;;;0;53
30343;BME280;17145;49.902;8.680;'2023-01-30 05:24:09';100460;;;0;55
30343;BME280;17145;49.902;8.680;'2023-01-30 05:26:36';100440;;;0;54
30343;BME280;17145;49.902;8.680;'2023-01-30 05:29:04';100440;;;0;53
30343;BME280;17145;49.902;8.680;'2023-01-30 05:31:32';100440;;;0;53
30343;BME280;17145;49.902;8.680;'2023-01-30 05:33:59';100450;;;0;53
30343;BME280;17145;49.902;8.680;'2023-01-30 05:36:26';100440;;;0;54
30343;BME280;17145;49.902;8.680;'2023-01-30 05:38:54';100440;;;0;54
30343;BME280;17145;49.902;8.680;'2023-01-30 05:41:21';100430;;;0;54
30343;BME280;17145;49.902;8.680;'2023-01-30 05:43:49';100420;;;0;54
30343;BME280;17145;49.902;8.680;'2023-01-30 05:46:16';100400;;;0;55
30343;BME280;17145;49.902;8.680;'2023-01-30 05:48:44';100380;;;0;55
30343;BME280;17145;49.902;8.680;'2023-01-30 05:51:11';100400;;;0;55
30343;BME280;17145;49.902;8.680;'2023-01-30 05:53:39';100390;;;0;55
30343;BME280;17145;49.902;8.680;'2023-01-30 05:56:07';100380;;;0;56
30343;BME280;17145;49.902;8.680;'2023-01-30 05:58:34';100380;;;0;56
30343;BME280;17145;49.902;8.680;'2023-01-30 06:01:12';100380;;;0;55
30343;BME280;17145;49.902;8.680;'2023-01-30 06:03:40';100390;;;0;55
30343;BME280;17145;49.902;8.680;'2023-01-30 06:06:07';100380;;;0;55
30343;BME280;17145;49.902;8.680;'2023-01-30 06:08:34';100370;;;0;55
30343;BME280;17145;49.902;8.680;'2023-01-30 06:11:02';100380;;;0;54
30343;BME280;17145;49.902;8.680;'2023-01-30 06:13:29';100390;;;0;55
30343;BME280;17145;49.902;8.680;'2023-01-30 06:15:56';100380;;;0;54
30343;BME280;17145;49.902;8.680;'2023-01-30 06:18:24';100380;;;0;55
30343;BME280;17145;49.902;8.680;'2023-01-30 06:20:51';100400;;;0;55
30343;BME280;17145;49.902;8.680;'2023-01-30 06:23:18';100380;;;0;54
30343;BME280;17145;49.902;8.680;'2023-01-30 06:25:46';100380;;;0;55
30343;BME280;17145;49.902;8.680;'2023-01-30 06:28:13';100380;;;0;55
30343;BME280;17145;49.902;8.680;'2023-01-30 06:30:40';100390;;;0;54
30343;BME280;17145;49.902;8.680;'2023-01-30 06:33:08';100390;;;0;55
30343;BME280;17145;49.902;8.680;'2023-01-30 06:35:35';100390;;;0;56
30343;BME280;17145;49.902;8.680;'2023-01-30 06:38:03';100380;;;0;55
30343;BME280;17145;49.902;8.680;'2023-01-30 06:40:30';100380;;;0;55
30343;BME280;17145;49.902;8.680;'2023-01-30 06:42:58';100370;;;0;56
30343;BME280;17145;49.902;8.680;'2023-01-30 06:45:25';100350;;;0;55
30343;BME280;17145;49.902;8.680;'2023-01-30 06:47:53';100340;;;0;55
30343;BME280;17145;49.902;8.680;'2023-01-30 06:50:20';100350;;;0;56
30343;BME280;17145;49.902;8.680;'2023-01-30 06:52:48';100390;;;0;56
30343;BME280;17145;49.902;8.680;'2023-01-30 06:55:15';100350;;;0;56
30343;BME280;17145;49.902;8.680;'2023-01-30 06:57:43';100350;;;0;56
30343;BME280;17145;49.902;8.680;'2023-01-30 07:00:11';100350;;;0;56
30343;BME280;17145;49.902;8.680;'2023-01-30 07:02:38';100350;;;0;56
30343;BME280;17145;49.902;8.680;'2023-01-30 07:05:07';100350;;;0;56
30343;BME280;17145;49.902;8.680;'2023-01-30 07:07:34';100350;;;0;56
30343;BME280;17145;49.902;8.680;'2023-01-30 07:10:02';100340;;;0;56
30343;BME280;17145;49.902;8.680;'2023-01-30 07:12:29';100330;;;0;55
30343;BME280;17145;49.902;8.680;'2023-01-30 07:14:57';100340;;;0;54
30343;BME280;17145;49.902;8.680;'2023-01-30 07:17:24';100330;;;0;54
30343;BME280;17145;49.902;8.680;'2023-01-30 07:19:52';100340;;;0;54
30343;BME280;17145;49.902;8.680;'2023-01-30 07:22:19';100340;;;0;54
30343;BME280;17145;49.902;8.680;'2023-01-30 07:24:47';100360;;;0;54
30343;BME280;17145;49.902;8.680;'2023-01-30 07:27:14';100360;;;0;56
30343;BME280;17145;49.902;8.680;'2023-01-30 07:29:42';100360;;;0;56
30343;BME280;17145;49.902;8.680;'2023-01-30 07:32:09';100360;;;0;56
30343;BME280;17145;49.902;8.680;'2023-01-30 07:34:36';100390;;;0;56
30343;BME280;17145;49.902;8.680;'2023-01-30 07:37:04';100380;;;0;57
30343;BME280;17145;49.902;8.680;'2023-01-30 07:39:31';100370;;;0;56
30343;BME280;17145;49.902;8.680;'2023-01-30 07:41:59';100380;;;0;56
30343;BME280;17145;49.902;8.680;'2023-01-30 07:44:26';100370;;;0;56
30343;BME280;17145;49.902;8.680;'2023-01-30 07:46:54';100360;;;0;56
30343;BME280;17145;49.902;8.680;'2023-01-30 07:49:21';100360;;;0;56
30343;BME280;17145;49.902;8.680;'2023-01-30 07:51:48';100360;;;0;56
30343;BME280;17145;49.902;8.680;'2023-01-30 07:54:16';100380;;;0;56
30343;BME280;17145;49.902;8.680;'2023-01-30 07:56:43';100370;;;0;58
30343;BME280;17145;49.902;8.680;'2023-01-30 07:59:11';100380;;;0;56
30343;BME280;17145;49.902;8.680;'2023-01-30 08:01:38';100370;;;0;57
30343;BME280;17145;49.902;8.680;'2023-01-30 08:04:06';100380;;;0;57
30343;BME280;17145;49.902;8.680;'2023-01-30 08:06:33';100360;;;0;57
30343;BME280;17145;49.902;8.680;'2023-01-30 08:09:01';100360;;;0;56
30343;BME280;17145;49.902;8.680;'2023-01-30 08:11:28';100360;;;0;56
30343;BME280;17145;49.902;8.680;'2023-01-30 08:13:56';100380;;;0;56
30343;BME280;17145;49.902;8.680;'2023-01-30 08:16:23';100380;;;0;56
30343;BME280;17145;49.902;8.680;'2023-01-30 08:18:51';100380;;;0;57
30343;BME280;17145;49.902;8.680;'2023-01-30 08:21:18';100370;;;0;57
30343;BME280;17145;49.902;8.680;'2023-01-30 08:23:46';100390;;;0;56
30343;BME280;17145;49.902;8.680;'2023-01-30 08:26:13';100410;;;0;56
30343;BME280;17145;49.902;8.680;'2023-01-30 08:28:41';100420;;;0;56
30343;BME280;17145;49.902;8.680;'2023-01-30 08:31:08';100400;;;0;55
30343;BME280;17145;49.902;8.680;'2023-01-30 08:33:35';100380;;;0;56
30343;BME280;17145;49.902;8.680;'2023-01-30 08:36:03';100400;;;0;59
30343;BME280;17145;49.902;8.680;'2023-01-30 08:38:31';100380;;;0;58
30343;BME280;17145;49.902;8.680;'2023-01-30 08:40:58';100390;;;0;58
30343;BME280;17145;49.902;8.680;'2023-01-30 08:43:25';100380;;;0;57
30343;BME280;17145;49.902;8.680;'2023-01-30 08:45:53';100380;;;0;57
30343;BME280;17145;49.902;8.680;'2023-01-30 08:48:20';100380;;;0;56
30343;BME280;17145;49.902;8.680;'2023-01-30 08:50:48';100390;;;1;56
30343;BME280;17145;49.902;8.680;'2023-01-30 08:53:16';100400;;;0;57
30343;BME280;17145;49.902;8.680;'2023-01-30 08:55:44';100400;;;0;57
30343;BME280;17145;49.902;8.680;'2023-01-30 08:58:12';100380;;;0;56
30343;BME280;17145;49.902;8.680;'2023-01-30 09:00:40';100400;;;0;56
30343;BME280;17145;49.902;8.680;'2023-01-30 09:03:11';100390;;;0;57
30343;BME280;17145;49.902;8.680;'2023-01-30 09:05:38';100380;;;0;57
30343;BME280;17145;49.902;8.680;'2023-01-30 09:08:06';100390;;;0;57
30343;BME280;17145;49.902;8.680;'2023-01-30 09:10:33';100390;;;0;56
30343;BME280;17145;49.902;8.680;'2023-01-30 09:13:01';100370;;;0;58
30343;BME280;17145;49.902;8.680;'2023-01-30 09:15:28';100370;;;0;57
30343;BME280;17145;49.902;8.680;'2023-01-30 09:17:56';100350;;;1;57
30343;BME280;17145;49.902;8.680;'2023-01-30 09:20:25';100350;;;0;57
30343;BME280;17145;49.902;8.680;'2023-01-30 09:22:53';100370;;;0;57
30343;BME280;17145;49.902;8.680;'2023-01-30 09:25:21';100350;;;1;57
30343;BME280;17145;49.902;8.680;'2023-01-30 09:27:48';100360;;;1;56
30343;BME280;17145;49.902;8.680;'2023-01-30 09:30:17';100360;;;1;56
30343;BME280;17145;49.902;8.680;'2023-01-30 09:32:45';100350;;;1;56
30343;BME280;17145;49.902;8.680;'2023-01-30 09:35:13';100350;;;1;56
30343;BME280;17145;49.902;8.680;'2023-01-30 09:37:41';100370;;;1;57
30343;BME280;17145;49.902;8.680;'2023-01-30 09:40:10';100380;;;1;57
30343;BME280;17145;49.902;8.680;'2023-01-30 09:42:37';100370;;;1;57
30343;BME280;17145;49.902;8.680;'2023-01-30 09:45:06';100370;;;1;56
30343;BME280;17145;49.902;8.680;'2023-01-30 09:47:33';100370;;;0;57
30343;BME280;17145;49.902;8.680;'2023-01-30 09:50:01';100360;;;0;58
30343;BME280;17145;49.902;8.680;'2023-01-30 09:52:28';100360;;;0;57
30343;BME280;17145;49.902;8.680;'2023-01-30 09:54:56';100350;;;1;56
30343;BME280;17145;49.902;8.680;'2023-01-30 09:57:23';100350;;;1;56
30343;BME280;17145;49.902;8.680;'2023-01-30 09:59:50';100350;;;1;56
30343;BME280;17145;49.902;8.680;'2023-01-30 10:02:18';100340;;;1;56
30343;BME280;17145;49.902;8.680;'2023-01-30 10:04:45';100340;;;0;58
30343;BME280;17145;49.902;8.680;'2023-01-30 10:07:13';100330;;;1;57
30343;BME280;17145;49.902;8.680;'2023-01-30 10:09:41';100330;;;1;57
30343;BME280;17145;49.902;8.680;'2023-01-30 10:12:08';100330;;;1;57
30343;BME280;17145;49.902;8.680;'2023-01-30 10:14:35';100320;;;0;58
30343;BME280;17145;49.902;8.680;'2023-01-30 10:17:03';100320;;;1;57
30343;BME280;17145;49.902;8.680;'2023-01-30 10:19:30';100330;;;0;58
30343;BME280;17145;49.902;8.680;'2023-01-30 10:21:58';100350;;;0;59
30343;BME280;17145;49.902;8.680;'2023-01-30 10:24:25';100340;;;1;58
30343;BME280;17145;49.902;8.680;'2023-01-30 10:26:53';100330;;;0;58
30343;BME280;17145;49.902;8.680;'2023-01-30 10:29:21';100340;;;1;57
30343;BME280;17145;49.902;8.680;'2023-01-30 10:31:48';100340;;;1;57
30343;BME280;17145;49.902;8.680;'2023-01-30 10:34:16';100340;;;1;57
30343;BME280;17145;49.902;8.680;'2023-01-30 10:36:43';100340;;;1;57
30343;BME280;17145;49.902;8.680;'2023-01-30 10:39:10';100320;;;1;57
30343;BME280;17145;49.902;8.680;'2023-01-30 10:41:56';100320;;;1;57
30343;BME280;17145;49.902;8.680;'2023-01-30 10:44:48';100320;;;0;58
30343;BME280;17145;49.902;8.680;'2023-01-30 10:47:26';100330;;;0;58
30343;BME280;17145;49.902;8.680;'2023-01-30 10:50:03';100330;;;0;58
30343;BME280;17145;49.902;8.680;'2023-01-30 10:52:37';100320;;;1;58
30343;BME280;17145;49.902;8.680;'2023-01-30 10:55:17';100330;;;1;58
30343;BME280;17145;49.902;8.680;'2023-01-30 10:57:46';100340;;;1;57
30343;BME280;17145;49.902;8.680;'2023-01-30 11:00:23';100340;;;1;57
30343;BME280;17145;49.902;8.680;'2023-01-30 11:02:57';100340;;;1;57
30343;BME280;17145;49.902;8.680;'2023-01-30 11:08:15';100320;;;1;56
30343;BME280;17145;49.902;8.680;'2023-01-30 11:10:47';100330;;;1;56
30343;BME280;17145;49.902;8.680;'2023-01-30 11:13:29';100310;;;1;56
30343;BME280;17145;49.902;8.680;'2023-01-30 11:16:07';100310;;;1;56
30343;BME280;17145;49.902;8.680;'2023-01-30 11:18:49';100290;;;1;56
30343;BME280;17145;49.902;8.680;'2023-01-30 11:21:30';100300;;;1;56
30343;BME280;17145;49.902;8.680;'2023-01-30 11:24:15';100300;;;1;57
30343;BME280;17145;49.902;8.680;'2023-01-30 11:26:43';100290;;;1;58
30343;BME280;17145;49.902;8.680;'2023-01-30 11:29:17';100300;;;0;61
30343;BME280;17145;49.902;8.680;'2023-01-30 11:31:48';100290;;;1;59
30343;BME280;17145;49.902;8.680;'2023-01-30 11:34:19';100280;;;1;59
30343;BME280;17145;49.902;8.680;'2023-01-30 11:36:53';100290;;;1;60
30343;BME280;17145;49.902;8.680;'2023-01-30 11:39:28';100280;;;1;61
30343;BME280;17145;49.902;8.680;'2023-01-30 11:42:03';100270;;;1;61
30343;BME280;17145;49.902;8.680;'2023-01-30 11:44:30';100270;;;1;59
30343;BME280;17145;49.902;8.680;'2023-01-30 11:47:13';100270;;;1;59
30343;BME280;17145;49.902;8.680;'2023-01-30 11:49:43';100270;;;0;61
30343;BME280;17145;49.902;8.680;'2023-01-30 11:52:24';100270;;;1;61
30343;BME280;17145;49.902;8.680;'2023-01-30 11:55:03';100280;;;1;61
30343;BME280;17145;49.902;8.680;'2023-01-30 11:57:42';100290;;;1;60
30343;BME280;17145;49.902;8.680;'2023-01-30 12:00:21';100290;;;1;60
30343;BME280;17145;49.902;8.680;'2023-01-30 12:03:02';100290;;;2;59
30343;BME280;17145;49.902;8.680;'2023-01-30 12:05:38';100290;;;2;59
30343;BME280;17145;49.902;8.680;'2023-01-30 12:08:19';100280;;;2;58
30343;BME280;17145;49.902;8.680;'2023-01-30 12:10:47';100280;;;2;59
30343;BME280;17145;49.902;8.680;'2023-01-30 12:13:18';100280;;;1;59
30343;BME280;17145;49.902;8.680;'2023-01-30 12:15:49';100290;;;1;58
30343;BME280;17145;49.902;8.680;'2023-01-30 12:18:19';100270;;;2;58
30343;BME280;17145;49.902;8.680;'2023-01-30 12:21:01';100280;;;2;58
30343;BME280;17145;49.902;8.680;'2023-01-30 12:23:34';100280;;;2;58
30343;BME280;17145;49.902;8.680;'2023-01-30 12:26:03';100280;;;2;58
30343;BME280;17145;49.902;8.680;'2023-01-30 12:28:38';100280;;;2;58
30343;BME280;17145;49.902;8.680;'2023-01-30 12:31:16';100280;;;3;57
30343;BME280;17145;49.902;8.680;'2023-01-30 12:33:44';100280;;;2;57
30343;BME280;17145;49.902;8.680;'2023-01-30 12:36:24';100270;;;2;57
30343;BME280;17145;49.902;8.680;'2023-01-30 12:38:56';100260;;;2;57
30343;BME280;17145;49.902;8.680;'2023-01-30 12:41:24';100270;;;2;57
30343;BME280;17145;49.902;8.680;'2023-01-30 12:44:00';100280;;;2;58
30343;BME280;17145;49.902;8.680;'2023-01-30 12:46:33';100260;;;2;58
30343;BME280;17145;49.902;8.680;'2023-01-30 12:49:03';100270;;;2;58
30343;BME280;17145;49.902;8.680;'2023-01-30 12:51:35';100270;;;2;59
30343;BME280;17145;49.902;8.680;'2023-01-30 12:54:05';100290;;;2;58
30343;BME280;17145;49.902;8.680;'2023-01-30 12:56:37';100290;;;2;58
30343;BME280;17145;49.902;8.680;'2023-01-30 12:59:11';100300;;;2;58
30343;BME280;17145;49.902;8.680;'2023-01-30 13:01:39';100300;;;1;60
30343;BME280;17145;49.902;8.680;'2023-01-30 13:04:10';100300;;;2;59
30343;BME280;17145;49.902;8.680;'2023-01-30 13:09:17';100300;;;2;58
30343;BME280;17145;49.902;8.680;'2023-01-30 13:11:45';100300;;;2;58
30343;BME280;17145;49.902;8.680;'2023-01-30 13:14:25';100300;;;2;59
30343;BME280;17145;49.902;8.680;'2023-01-30 13:16:59';100280;;;2;59
30343;BME280;17145;49.902;8.680;'2023-01-30 13:19:38';100270;;;2;59
30343;BME280;17145;49.902;8.680;'2023-01-30 13:22:19';100270;;;2;59
30343;BME280;17145;49.902;8.680;'2023-01-30 13:24:56';100270;;;2;59
30343;BME280;17145;49.902;8.680;'2023-01-30 13:27:32';100260;;;2;59
30343;BME280;17145;49.902;8.680;'2023-01-30 13:30:05';100260;;;2;59
30343;BME280;17145;49.902;8.680;'2023-01-30 13:32:34';100260;;;3;57
30343;BME280;17145;49.902;8.680;'2023-01-30 13:35:11';100250;;;3;57
30343;BME280;17145;49.902;8.680;'2023-01-30 13:37:53';100240;;;3;57
30343;BME280;17145;49.902;8.680;'2023-01-30 13:40:34';100240;;;3;57
30343;BME280;17145;49.902;8.680;'2023-01-30 13:43:26';100240;;;3;57
30343;BME280;17145;49.902;8.680;'2023-01-30 13:46:06';100250;;;3;56
30343;BME280;17145;49.902;8.680;'2023-01-30 13:48:50';100250;;;3;56
30343;BME280;17145;49.902;8.680;'2023-01-30 13:51:33';100250;;;3;57
30343;BME280;17145;49.902;8.680;'2023-01-30 13:54:10';100260;;;3;57
30343;BME280;17145;49.902;8.680;'2023-01-30 13:56:52';100260;;;3;56
30343;BME280;17145;49.902;8.680;'2023-01-30 13:59:29';100240;;;3;56
30343;BME280;17145;49.902;8.680;'2023-01-30 14:02:12';100240;;;3;57
30343;BME280;17145;49.902;8.680;'2023-01-30 14:04:49';100260;;;4;56
30343;BME280;17145;49.902;8.680;'2023-01-30 14:07:23';100260;;;3;56
30343;BME280;17145;49.902;8.680;'2023-01-30 14:10:04';100250;;;3;55
30343;BME280;17145;49.902;8.680;'2023-01-30 14:12:40';100260;;;3;55
30343;BME280;17145;49.902;8.680;'2023-01-30 14:15:19';100260;;;3;57
30343;BME280;17145;49.902;8.680;'2023-01-30 14:18:00';100260;;;3;57
30343;BME280;17145;49.902;8.680;'2023-01-30 14:20:43';100260;;;3;56
30343;BME280;17145;49.902;8.680;'2023-01-30 14:23:16';100270;;;3;56
30343;BME280;17145;49.902;8.680;'2023-01-30 14:25:53';100260;;;3;56
30343;BME280;17145;49.902;8.680;'2023-01-30 14:28:24';100270;;;4;55
30343;BME280;17145;49.902;8.680;'2023-01-30 14:30:53';100270;;;3;57
30343;BME280;17145;49.902;8.680;'2023-01-30 14:33:25';100270;;;3;57
30343;BME280;17145;49.902;8.680;'2023-01-30 14:36:00';100280;;;3;57
30343;BME280;17145;49.902;8.680;'2023-01-30 14:38:31';100280;;;3;57
30343;BME280;17145;49.902;8.680;'2023-01-30 14:41:02';100280;;;3;56
30343;BME280;17145;49.902;8.680;'2023-01-30 14:43:35';100270;;;3;57
30343;BME280;17145;49.902;8.680;'2023-01-30 14:46:08';100280;;;4;56
30343;BME280;17145;49.902;8.680;'2023-01-30 14:48:47';100270;;;4;55
30343;BME280;17145;49.902;8.680;'2023-01-30 14:51:26';100270;;;4;56
30343;BME280;17145;49.902;8.680;'2023-01-30 14:54:02';100270;;;4;55
30343;BME280;17145;49.902;8.680;'2023-01-30 14:56:38';100280;;;4;56
30343;BME280;17145;49.902;8.680;'2023-01-30 15:02:01';100290;;;4;55
30343;BME280;17145;49.902;8.680;'2023-01-30 15:04:43';100310;;;3;56
30343;BME280;17145;49.902;8.680;'2023-01-30 15:07:14';100300;;;3;57
30343;BME280;17145;49.902;8.680;'2023-01-30 15:09:47';100310;;;4;57
30343;BME280;17145;49.902;8.680;'2023-01-30 15:12:18';100320;;;3;57
30343;BME280;17145;49.902;8.680;'2023-01-30 15:14:58';100310;;;4;56
30343;BME280;17145;49.902;8.680;'2023-01-30 15:17:26';100290;;;4;56
30343;BME280;17145;49.902;8.680;'2023-01-30 15:20:00';100290;;;4;55
30343;BME280;17145;49.902;8.680;'2023-01-30 15:25:20';100300;;;4;55
30343;BME280;17145;49.902;8.680;'2023-01-30 15:27:47';100300;;;4;55
30343;BME280;17145;49.902;8.680;'2023-01-30 15:30:33';100310;;;4;55
30343;BME280;17145;49.902;8.680;'2023-01-30 15:33:02';100310;;;4;55
30343;BME280;17145;49.902;8.680;'2023-01-30 15:35:31';100310;;;4;55
30343;BME280;17145;49.902;8.680;'2023-01-30 15:38:09';100340;;;4;55
30343;BME280;17145;49.902;8.680;'2023-01-30 15:40:39';100340;;;4;55
30343;BME280;17145;49.902;8.680;'2023-01-30 15:43:26';100360;;;4;56
30343;BME280;17145;49.902;8.680;'2023-01-30 15:45:56';100360;;;4;57
30343;BME280;17145;49.902;8.680;'2023-01-30 15:48:32';100360;;;4;56
30343;BME280;17145;49.902;8.680;'2023-01-30 15:51:10';100360;;;4;57
30343;BME280;17145;49.902;8.680;'2023-01-30 15:53:48';100370;;;4;57
30343;BME280;17145;49.902;8.680;'2023-01-30 15:56:17';100370;;;4;57